Julian Carroll Airport Jackson US
ICAO: KJKL
IATA: JKL
Category: Medium
Scheduled Services: No

Elevation: 1381 ft
TransAlt. 18000 ft.

Airport Communications:
ASOS:118.375
INDIANAPOLIS CNTR:126.57
CTAF/UNICOM:122.8

KJKL Zoom In..

If you have problems with the map follow the link
https://www.worldairports.se/pages/airport.php?
ICAO=KJKL

Runways:

(A) RW 01 length 4400 ft width 75 ft
---- / hdg 12

(B) RW 19 length 4400 ft width 75 ft
---- / hdg 192

Location; KJKL
Day. 18 / Time. 10.53 Zulu
* Altimeter: 30.14
* Temperature: 06° c. 42.8°f.
* Wind from: 200° Speed 08 kn.
Dewpoint: -05° c.
Visibility: 10 Statute Miles.
Clouds: Broken 3800 ft.
Clouds: Overcast 8500 ft.

KJKL 181053Z AUTO 20008KT 10SM BKN038 OVC085 06/M05 A3014 RMK AO2 SLP214 T00611050


Wind From 200°
Speed 08 kn.

 
 
jpsmedia worldairports.se 2020   terms of use